createdAt,value
2023-02-28T00:00:33.576Z,2.07
2023-02-28T00:03:00.101Z,2.47
2023-02-28T00:05:28.114Z,3.67
2023-02-28T00:07:55.229Z,2.73
2023-02-28T00:10:25.004Z,2.83
2023-02-28T00:12:52.995Z,1.87
2023-02-28T00:15:19.715Z,1.83
2023-02-28T00:17:46.594Z,2.27
2023-02-28T00:20:14.260Z,2.40
2023-02-28T00:22:43.274Z,3.10
2023-02-28T00:25:11.554Z,2.60
2023-02-28T00:27:40.140Z,3.20
2023-02-28T00:30:08.033Z,2.70
2023-02-28T00:32:35.538Z,2.50
2023-02-28T00:35:03.282Z,2.10
2023-02-28T00:37:29.922Z,4.83
2023-02-28T00:39:56.601Z,2.53
2023-02-28T00:42:23.779Z,2.43
2023-02-28T00:44:50.213Z,3.03
2023-02-28T00:47:16.947Z,3.63
2023-02-28T00:49:43.854Z,3.37
2023-02-28T00:52:10.726Z,2.90
2023-02-28T00:54:37.227Z,2.43
2023-02-28T00:57:03.785Z,2.77
2023-02-28T00:59:31.882Z,2.40
2023-02-28T01:01:58.862Z,3.17
2023-02-28T01:04:25.453Z,2.70
2023-02-28T01:06:51.983Z,2.47
2023-02-28T01:09:18.446Z,3.90
2023-02-28T01:11:45.126Z,2.80
2023-02-28T01:14:17.156Z,3.20
2023-02-28T01:16:45.809Z,3.20
2023-02-28T01:19:12.273Z,2.67
2023-02-28T01:21:38.923Z,3.27
2023-02-28T01:24:06.333Z,2.83
2023-02-28T01:26:32.877Z,2.77
2023-02-28T01:28:59.697Z,4.40
2023-02-28T01:31:27.199Z,2.90
2023-02-28T01:33:54.117Z,3.13
2023-02-28T01:36:24.598Z,4.03
2023-02-28T01:38:51.625Z,4.20
2023-02-28T01:41:32.089Z,3.40
2023-02-28T01:44:28.480Z,4.00
2023-02-28T01:46:56.141Z,3.10
2023-02-28T01:49:22.843Z,4.53
2023-02-28T01:51:57.133Z,3.97
2023-02-28T01:54:30.307Z,4.80
2023-02-28T01:57:06.896Z,3.20
2023-02-28T01:59:41.495Z,3.73
2023-02-28T02:02:08.224Z,3.33
2023-02-28T02:05:02.624Z,4.40
2023-02-28T02:07:34.853Z,3.57
2023-02-28T02:10:10.924Z,4.87
2023-02-28T02:12:49.567Z,3.23
2023-02-28T02:15:57.354Z,3.40
2023-02-28T02:18:46.605Z,4.37
2023-02-28T02:21:16.105Z,3.90
2023-02-28T02:24:00.598Z,3.60
2023-02-28T02:26:45.441Z,5.33
2023-02-28T02:29:39.783Z,3.40
2023-02-28T02:32:41.674Z,4.27
2023-02-28T02:35:30.593Z,3.40
2023-02-28T02:38:17.475Z,5.73
2023-02-28T02:40:56.378Z,3.37
2023-02-28T02:43:36.868Z,3.50
2023-02-28T02:46:10.449Z,4.07
2023-02-28T02:48:41.494Z,3.77
2023-02-28T02:51:15.200Z,3.73
2023-02-28T02:53:50.236Z,4.20
2023-02-28T02:56:20.945Z,3.20
2023-02-28T02:58:50.459Z,4.53
2023-02-28T03:01:28.748Z,4.87
2023-02-28T03:04:02.634Z,4.10
2023-02-28T03:06:29.246Z,3.60
2023-02-28T03:08:55.746Z,4.13
2023-02-28T03:11:23.078Z,4.20
2023-02-28T03:14:31.588Z,3.37
2023-02-28T03:17:04.228Z,4.50
2023-02-28T03:19:52.082Z,6.23
2023-02-28T03:22:53.164Z,3.53
2023-02-28T03:25:32.911Z,3.47
2023-02-28T03:28:22.983Z,3.97
2023-02-28T03:30:55.135Z,6.20
2023-02-28T03:33:28.120Z,3.20
2023-02-28T03:36:00.360Z,3.80
2023-02-28T03:38:49.680Z,4.63
2023-02-28T03:41:33.235Z,3.73
2023-02-28T03:44:07.309Z,4.20
2023-02-28T03:46:38.415Z,5.20
2023-02-28T03:49:15.482Z,5.73
2023-02-28T03:51:43.723Z,5.03
2023-02-28T03:54:17.012Z,3.67
2023-02-28T03:56:55.199Z,3.63
2023-02-28T03:59:35.407Z,3.93
2023-02-28T04:02:02.314Z,4.80
2023-02-28T04:04:29.379Z,3.70
2023-02-28T04:07:04.310Z,4.83
2023-02-28T04:09:30.823Z,4.90
2023-02-28T04:11:57.338Z,6.63
2023-02-28T04:14:25.308Z,5.20
2023-02-28T04:16:52.127Z,4.37
2023-02-28T04:19:18.963Z,7.47
2023-02-28T04:21:48.624Z,4.87
2023-02-28T04:24:18.542Z,4.47
2023-02-28T04:26:47.640Z,6.37
2023-02-28T04:29:19.019Z,4.80
2023-02-28T04:31:45.607Z,4.97
2023-02-28T04:34:12.211Z,5.13
2023-02-28T04:36:38.668Z,5.63
2023-02-28T04:39:05.136Z,6.73
2023-02-28T04:41:32.792Z,6.43
2023-02-28T04:43:59.798Z,6.50
2023-02-28T04:46:26.580Z,6.30
2023-02-28T04:48:54.590Z,5.70
2023-02-28T04:51:21.094Z,7.20
2023-02-28T04:53:48.995Z,8.23
2023-02-28T04:56:17.701Z,8.70
2023-02-28T04:58:44.716Z,8.90
2023-02-28T05:01:28.011Z,5.33
2023-02-28T05:03:56.276Z,5.30
2023-02-28T05:06:24.965Z,5.87
2023-02-28T05:08:52.172Z,7.00
2023-02-28T05:11:27.375Z,5.30
2023-02-28T05:13:55.050Z,6.97
2023-02-28T05:16:22.153Z,5.83
2023-02-28T05:18:48.753Z,5.97
2023-02-28T05:21:29.461Z,7.33
2023-02-28T05:23:57.687Z,7.17
2023-02-28T05:26:25.095Z,5.67
2023-02-28T05:28:51.680Z,7.13
2023-02-28T05:31:18.234Z,6.53
2023-02-28T05:33:44.836Z,7.13
2023-02-28T05:36:11.530Z,7.40
2023-02-28T05:38:39.029Z,8.97
2023-02-28T05:41:07.730Z,6.77
2023-02-28T05:43:34.373Z,5.47
2023-02-28T05:46:06.622Z,7.30
2023-02-28T05:48:35.444Z,8.40
2023-02-28T05:51:03.458Z,8.00
2023-02-28T05:53:30.465Z,6.23
2023-02-28T05:55:57.008Z,7.13
2023-02-28T05:58:24.229Z,6.97
2023-02-28T06:00:50.693Z,8.23
2023-02-28T06:03:17.241Z,8.23
2023-02-28T06:05:43.714Z,9.13
2023-02-28T06:08:10.237Z,7.30
2023-02-28T06:10:36.747Z,9.97
2023-02-28T06:13:06.540Z,8.40
2023-02-28T06:15:33.490Z,7.83
2023-02-28T06:18:00.036Z,7.13
2023-02-28T06:20:30.170Z,7.70
2023-02-28T06:22:59.430Z,7.83
2023-02-28T06:25:27.269Z,7.07
2023-02-28T06:27:54.776Z,6.13
2023-02-28T06:30:26.134Z,8.93
2023-02-28T06:32:53.039Z,6.53
2023-02-28T06:35:19.704Z,8.63
2023-02-28T06:37:48.278Z,7.23
2023-02-28T06:40:15.811Z,8.10
2023-02-28T06:42:42.355Z,6.40
2023-02-28T06:45:10.286Z,6.50
2023-02-28T06:47:39.089Z,7.90
2023-02-28T06:50:06.550Z,6.80
2023-02-28T06:52:33.266Z,6.27
2023-02-28T06:55:02.861Z,6.03
2023-02-28T06:57:34.336Z,5.80
2023-02-28T07:00:01.876Z,5.90
2023-02-28T07:02:28.852Z,5.67
2023-02-28T07:04:55.577Z,6.13
2023-02-28T07:07:22.160Z,7.70
2023-02-28T07:09:48.614Z,6.77
2023-02-28T07:12:15.053Z,5.97
2023-02-28T07:14:41.558Z,6.37
2023-02-28T07:17:09.596Z,6.50
2023-02-28T07:19:36.050Z,7.23
2023-02-28T07:22:03.834Z,5.33
2023-02-28T07:24:30.588Z,6.90
2023-02-28T07:26:57.687Z,5.93
2023-02-28T07:29:24.176Z,4.87
2023-02-28T07:31:53.964Z,5.27
2023-02-28T07:34:21.236Z,6.17
2023-02-28T07:36:47.848Z,4.47
2023-02-28T07:39:14.406Z,6.27
2023-02-28T07:41:44.367Z,4.40
2023-02-28T07:44:11.931Z,5.47
2023-02-28T07:46:38.930Z,4.47
2023-02-28T07:49:06.709Z,6.43
2023-02-28T07:51:33.227Z,4.67
2023-02-28T07:53:59.737Z,4.70
2023-02-28T07:56:26.265Z,4.87
2023-02-28T07:58:52.756Z,6.40
2023-02-28T08:01:20.425Z,4.47
2023-02-28T08:03:46.941Z,6.83
2023-02-28T08:06:19.996Z,5.07
2023-02-28T08:08:46.836Z,6.23
2023-02-28T08:11:13.796Z,4.47
2023-02-28T08:13:40.426Z,5.73
2023-02-28T08:16:07.258Z,4.40
2023-02-28T08:18:34.298Z,5.90
2023-02-28T08:21:01.056Z,5.10
2023-02-28T08:23:27.535Z,5.67
2023-02-28T08:25:57.800Z,4.50
2023-02-28T08:28:27.029Z,4.23
2023-02-28T08:30:54.694Z,5.60
2023-02-28T08:33:21.711Z,4.20
2023-02-28T08:35:48.218Z,5.40
2023-02-28T08:38:14.668Z,3.83
2023-02-28T08:40:41.676Z,4.43
2023-02-28T08:43:08.164Z,3.70
2023-02-28T08:45:34.673Z,5.10
2023-02-28T08:48:01.167Z,3.93
2023-02-28T08:50:27.678Z,4.50
2023-02-28T08:52:54.116Z,5.73
2023-02-28T08:55:20.595Z,5.90
2023-02-28T08:57:47.026Z,4.37
2023-02-28T09:00:14.554Z,4.07
2023-02-28T09:02:43.663Z,4.50
2023-02-28T09:05:11.081Z,3.77
2023-02-28T09:07:37.596Z,6.33
2023-02-28T09:10:04.608Z,7.60
2023-02-28T09:12:35.790Z,5.13
2023-02-28T09:15:03.247Z,4.83
2023-02-28T09:17:30.903Z,4.67
2023-02-28T09:19:58.021Z,5.70
2023-02-28T09:22:24.869Z,5.53
2023-02-28T09:24:51.359Z,4.50
2023-02-28T09:27:17.950Z,7.13
2023-02-28T09:29:44.584Z,5.17
2023-02-28T09:32:11.217Z,4.87
2023-02-28T09:34:39.199Z,4.97
2023-02-28T09:37:05.801Z,6.87
2023-02-28T09:39:32.791Z,6.33
2023-02-28T09:41:59.720Z,9.10
2023-02-28T09:44:32.619Z,5.63
2023-02-28T09:47:06.264Z,6.20
2023-02-28T09:49:39.929Z,8.03
2023-02-28T09:52:18.141Z,7.57
2023-02-28T09:54:44.626Z,5.43
2023-02-28T09:57:48.048Z,5.40
2023-02-28T10:00:19.090Z,6.77
2023-02-28T10:03:13.253Z,7.83
2023-02-28T10:05:44.601Z,5.70
2023-02-28T10:08:16.986Z,7.53
2023-02-28T10:10:47.830Z,7.07
2023-02-28T10:13:26.600Z,6.47
2023-02-28T10:16:04.912Z,8.43
2023-02-28T10:18:42.517Z,6.20
2023-02-28T10:21:21.855Z,6.10
2023-02-28T10:23:49.554Z,7.93
2023-02-28T10:26:19.002Z,6.70
2023-02-28T10:28:46.214Z,5.97
2023-02-28T10:31:18.908Z,6.20
2023-02-28T10:33:45.790Z,6.70
2023-02-28T10:36:17.489Z,6.43
2023-02-28T10:38:46.261Z,6.97
2023-02-28T10:41:18.293Z,6.33
2023-02-28T10:43:48.496Z,7.10
2023-02-28T10:46:26.585Z,7.03
2023-02-28T10:49:06.161Z,7.60
2023-02-28T10:51:40.980Z,7.07
2023-02-28T10:54:17.482Z,8.50
2023-02-28T10:56:43.931Z,7.73
2023-02-28T10:59:16.503Z,7.63
2023-02-28T11:01:53.810Z,6.63
2023-02-28T11:04:23.218Z,9.37
2023-02-28T11:07:23.144Z,12.87
2023-02-28T11:09:56.339Z,8.60
2023-02-28T11:12:46.844Z,8.80
2023-02-28T11:15:34.612Z,8.97
2023-02-28T11:18:05.925Z,7.30
2023-02-28T11:20:34.521Z,6.80
2023-02-28T11:23:03.922Z,9.37
2023-02-28T11:25:34.531Z,9.03
2023-02-28T11:28:05.606Z,7.70
2023-02-28T11:30:38.519Z,7.67
2023-02-28T11:33:28.641Z,8.47
2023-02-28T11:36:02.507Z,7.80
2023-02-28T11:38:29.088Z,9.80
2023-02-28T11:41:13.243Z,9.10
2023-02-28T11:44:11.924Z,9.27
2023-02-28T11:46:48.859Z,9.13
2023-02-28T11:49:33.131Z,8.40
2023-02-28T11:52:35.371Z,10.00
2023-02-28T11:55:18.771Z,8.30
2023-02-28T11:57:45.143Z,7.60
2023-02-28T12:00:31.166Z,10.17
2023-02-28T12:03:19.031Z,7.83
2023-02-28T12:05:50.696Z,7.60
2023-02-28T12:08:46.232Z,8.33
2023-02-28T12:11:21.878Z,7.83
2023-02-28T12:13:58.778Z,7.33
2023-02-28T12:16:34.129Z,7.97
2023-02-28T12:19:22.601Z,7.80
2023-02-28T12:21:58.259Z,8.23
2023-02-28T12:24:36.369Z,8.60
2023-02-28T12:27:07.211Z,8.47
2023-02-28T12:29:45.652Z,7.63
2023-02-28T12:32:24.761Z,8.60
2023-02-28T12:35:09.554Z,10.63
2023-02-28T12:37:42.039Z,9.13
2023-02-28T12:40:12.678Z,8.70
2023-02-28T12:42:47.143Z,9.57
2023-02-28T12:45:21.198Z,8.27
2023-02-28T12:47:53.841Z,7.60
2023-02-28T12:50:20.964Z,7.63
2023-02-28T12:53:07.761Z,7.43
2023-02-28T12:55:52.696Z,8.87
2023-02-28T12:58:25.249Z,8.23
2023-02-28T13:01:29.767Z,7.30
2023-02-28T13:04:24.299Z,6.77
2023-02-28T13:07:18.722Z,8.60
2023-02-28T13:10:00.599Z,8.17
2023-02-28T13:12:27.894Z,9.60
2023-02-28T13:15:22.115Z,9.43
2023-02-28T13:17:54.288Z,7.23
2023-02-28T13:20:24.928Z,9.17
2023-02-28T13:22:54.346Z,8.33
2023-02-28T13:25:23.501Z,8.47
2023-02-28T13:27:57.126Z,8.63
2023-02-28T13:30:59.527Z,12.60
2023-02-28T13:33:31.385Z,9.57
2023-02-28T13:36:31.350Z,9.83
2023-02-28T13:39:02.613Z,8.23
2023-02-28T13:41:31.919Z,9.23
2023-02-28T13:44:12.654Z,10.87
2023-02-28T13:46:48.292Z,9.10
2023-02-28T13:49:26.685Z,8.07
2023-02-28T13:51:55.986Z,10.67
2023-02-28T13:54:31.592Z,9.83
2023-02-28T13:57:05.311Z,11.47
2023-02-28T13:59:51.281Z,13.83
2023-02-28T14:02:41.941Z,11.93
2023-02-28T14:05:27.077Z,10.33
2023-02-28T14:08:05.373Z,10.40
2023-02-28T14:10:35.651Z,12.80
2023-02-28T14:13:14.592Z,11.30
2023-02-28T14:15:44.047Z,12.77
2023-02-28T14:18:34.505Z,9.87
2023-02-28T14:21:33.508Z,8.97
2023-02-28T14:24:21.249Z,11.20
2023-02-28T14:27:26.247Z,10.03
2023-02-28T14:30:07.806Z,10.40
2023-02-28T14:32:55.383Z,8.90
2023-02-28T14:35:43.071Z,10.53
2023-02-28T14:38:19.609Z,11.43
2023-02-28T14:40:48.374Z,11.70
2023-02-28T14:43:23.549Z,11.87
2023-02-28T14:45:56.724Z,11.73
2023-02-28T14:48:26.073Z,11.67
2023-02-28T14:50:56.008Z,11.87
2023-02-28T14:53:26.163Z,12.60
2023-02-28T14:55:53.758Z,10.40
2023-02-28T14:58:32.444Z,11.50
2023-02-28T15:01:01.490Z,10.20
2023-02-28T15:03:40.396Z,12.83
2023-02-28T15:06:15.565Z,13.43
2023-02-28T15:08:42.095Z,12.43
2023-02-28T15:11:24.977Z,10.93
2023-02-28T15:13:57.351Z,11.37
2023-02-28T15:16:32.633Z,13.40
2023-02-28T15:19:02.535Z,12.27
2023-02-28T15:21:31.210Z,11.23
2023-02-28T15:24:04.257Z,12.43
2023-02-28T15:26:34.502Z,13.20
2023-02-28T15:29:05.691Z,11.03
2023-02-28T15:31:56.159Z,8.97
2023-02-28T15:34:42.553Z,11.93
2023-02-28T15:37:54.608Z,11.50
2023-02-28T15:40:28.232Z,11.50
2023-02-28T15:43:10.368Z,11.80
2023-02-28T15:45:47.121Z,12.20
2023-02-28T15:48:28.050Z,11.23
2023-02-28T15:51:09.438Z,10.60
2023-02-28T15:53:48.492Z,13.07
2023-02-28T15:56:28.871Z,11.13
2023-02-28T15:59:04.125Z,12.83
2023-02-28T16:01:33.874Z,12.03
2023-02-28T16:04:09.819Z,14.13
2023-02-28T16:06:59.634Z,10.30
2023-02-28T16:09:28.225Z,11.17
2023-02-28T16:11:58.107Z,12.23
2023-02-28T16:14:28.467Z,10.50
2023-02-28T16:16:58.139Z,9.30
2023-02-28T16:19:24.928Z,11.27
2023-02-28T16:21:52.081Z,12.00
2023-02-28T16:24:18.633Z,12.33
2023-02-28T16:26:49.139Z,10.40
2023-02-28T16:29:42.684Z,12.53
2023-02-28T16:32:09.240Z,11.23
2023-02-28T16:34:35.894Z,11.50
2023-02-28T16:37:02.363Z,12.77
2023-02-28T16:39:28.885Z,12.90
2023-02-28T16:41:55.380Z,12.10
2023-02-28T16:44:34.806Z,11.10
2023-02-28T16:47:02.619Z,13.10
2023-02-28T16:49:29.354Z,12.23
2023-02-28T16:51:55.924Z,10.50
2023-02-28T16:54:22.458Z,12.20
2023-02-28T16:56:49.574Z,10.97
2023-02-28T16:59:20.616Z,13.40
2023-02-28T17:01:47.173Z,11.50
2023-02-28T17:04:15.140Z,9.93
2023-02-28T17:06:41.798Z,11.87
2023-02-28T17:09:21.026Z,11.07
2023-02-28T17:11:48.935Z,11.47
2023-02-28T17:14:16.628Z,10.33
2023-02-28T17:16:43.824Z,11.77
2023-02-28T17:19:13.895Z,11.70
2023-02-28T17:21:42.694Z,12.60
2023-02-28T17:24:16.584Z,12.77
2023-02-28T17:26:45.875Z,14.03
2023-02-28T17:29:21.540Z,12.67
2023-02-28T17:31:48.152Z,10.57
2023-02-28T17:34:19.329Z,11.40
2023-02-28T17:36:46.978Z,11.30
2023-02-28T17:39:15.084Z,11.57
2023-02-28T17:41:44.334Z,13.53
2023-02-28T17:44:10.795Z,10.90
2023-02-28T17:46:37.793Z,13.23
2023-02-28T17:49:04.332Z,11.73
2023-02-28T17:51:30.846Z,31.07
2023-02-28T17:53:57.324Z,56.20
2023-02-28T17:56:26.277Z,26.47
2023-02-28T17:58:55.243Z,16.27
2023-02-28T18:01:22.584Z,44.47
2023-02-28T18:03:49.391Z,31.13
2023-02-28T18:06:25.411Z,23.33
2023-02-28T18:08:52.609Z,16.90
2023-02-28T18:11:20.496Z,28.90
2023-02-28T18:13:48.867Z,17.43
2023-02-28T18:16:16.396Z,18.10
2023-02-28T18:18:43.842Z,24.30
2023-02-28T18:21:15.850Z,18.33
2023-02-28T18:23:48.170Z,17.37
2023-02-28T18:26:15.994Z,25.83
2023-02-28T18:28:44.436Z,23.63
2023-02-28T18:31:20.717Z,19.37
2023-02-28T18:33:52.155Z,18.70
2023-02-28T18:36:20.844Z,19.70
2023-02-28T18:38:48.257Z,16.00
2023-02-28T18:41:14.742Z,24.37
2023-02-28T18:43:41.234Z,26.93
2023-02-28T18:46:14.055Z,35.70
2023-02-28T18:48:40.558Z,38.63
2023-02-28T18:51:26.758Z,31.87
2023-02-28T18:53:53.619Z,23.63
2023-02-28T18:56:23.118Z,19.23
2023-02-28T18:58:50.490Z,16.13
2023-02-28T19:01:21.064Z,15.13
2023-02-28T19:03:49.034Z,16.43
2023-02-28T19:06:16.472Z,16.07
2023-02-28T19:08:43.101Z,17.70
2023-02-28T19:11:15.746Z,19.27
2023-02-28T19:13:43.097Z,16.17
2023-02-28T19:16:11.691Z,21.17
2023-02-28T19:18:38.232Z,25.90
2023-02-28T19:21:10.160Z,25.00
2023-02-28T19:23:38.281Z,25.97
2023-02-28T19:26:25.098Z,18.27
2023-02-28T19:28:51.635Z,12.63
2023-02-28T19:31:21.845Z,13.30
2023-02-28T19:33:48.514Z,12.17
2023-02-28T19:36:15.669Z,14.27
2023-02-28T19:38:44.415Z,13.10
2023-02-28T19:41:12.434Z,12.37
2023-02-28T19:43:39.193Z,16.50
2023-02-28T19:46:06.760Z,14.03
2023-02-28T19:48:33.502Z,13.70
2023-02-28T19:51:06.260Z,13.50
2023-02-28T19:53:34.743Z,16.40
2023-02-28T19:56:01.451Z,13.60
2023-02-28T19:58:28.122Z,14.73
2023-02-28T20:00:54.704Z,42.03
2023-02-28T20:03:21.928Z,16.90
2023-02-28T20:06:03.062Z,14.17
2023-02-28T20:08:29.992Z,14.17
2023-02-28T20:11:06.514Z,13.77
2023-02-28T20:13:33.509Z,13.00
2023-02-28T20:16:01.874Z,15.30
2023-02-28T20:18:29.099Z,12.90
2023-02-28T20:20:55.859Z,14.37
2023-02-28T20:23:22.416Z,15.80
2023-02-28T20:25:51.312Z,26.80
2023-02-28T20:28:20.796Z,17.20
2023-02-28T20:30:48.740Z,17.23
2023-02-28T20:33:19.408Z,17.03
2023-02-28T20:35:45.974Z,18.30
2023-02-28T20:38:12.725Z,23.93
2023-02-28T20:40:39.381Z,20.73
2023-02-28T20:43:06.017Z,19.67
2023-02-28T20:45:32.572Z,17.60
2023-02-28T20:47:59.063Z,36.27
2023-02-28T20:50:25.516Z,29.57
2023-02-28T20:52:52.083Z,19.73
2023-02-28T20:55:18.716Z,16.33
2023-02-28T20:57:45.465Z,16.33
2023-02-28T21:00:16.245Z,16.43
2023-02-28T21:02:42.775Z,14.77
2023-02-28T21:05:09.709Z,16.70
2023-02-28T21:07:36.166Z,15.70
2023-02-28T21:10:02.858Z,15.80
2023-02-28T21:12:29.393Z,15.60
2023-02-28T21:14:55.889Z,14.23
2023-02-28T21:17:22.670Z,16.07
2023-02-28T21:19:49.125Z,15.40
2023-02-28T21:22:15.800Z,15.53
2023-02-28T21:24:42.398Z,15.47
2023-02-28T21:27:08.843Z,15.23
2023-02-28T21:29:36.175Z,15.40
2023-02-28T21:32:02.713Z,14.07
2023-02-28T21:34:29.203Z,17.00
2023-02-28T21:36:55.794Z,15.43
2023-02-28T21:39:25.900Z,13.53
2023-02-28T21:41:53.549Z,17.20
2023-02-28T21:44:21.384Z,15.40
2023-02-28T21:46:52.050Z,16.97
2023-02-28T21:49:18.719Z,14.87
2023-02-28T21:51:45.344Z,16.77
2023-02-28T21:54:12.374Z,16.87
2023-02-28T21:56:39.284Z,15.03
2023-02-28T21:59:07.121Z,15.63
2023-02-28T22:01:39.458Z,16.43
2023-02-28T22:04:08.395Z,14.87
2023-02-28T22:06:38.139Z,16.37
2023-02-28T22:09:07.498Z,15.27
2023-02-28T22:11:35.214Z,15.40
2023-02-28T22:14:01.947Z,17.33
2023-02-28T22:16:35.229Z,17.90
2023-02-28T22:19:06.408Z,14.87
2023-02-28T22:21:34.336Z,17.80
2023-02-28T22:24:01.865Z,18.67
2023-02-28T22:26:28.905Z,18.50
2023-02-28T22:28:55.614Z,17.13
2023-02-28T22:31:28.053Z,15.10
2023-02-28T22:33:57.788Z,15.07
2023-02-28T22:36:24.735Z,16.30
2023-02-28T22:38:52.594Z,17.07
2023-02-28T22:41:22.071Z,16.13
2023-02-28T22:43:54.371Z,17.93
2023-02-28T22:46:22.761Z,20.03
2023-02-28T22:48:49.948Z,17.13
2023-02-28T22:51:23.239Z,16.13
2023-02-28T22:53:51.302Z,16.63
2023-02-28T22:56:20.145Z,15.50
2023-02-28T22:59:04.697Z,15.17
2023-02-28T23:01:33.916Z,17.40
2023-02-28T23:04:01.230Z,15.83
2023-02-28T23:06:30.849Z,16.20
2023-02-28T23:09:00.601Z,15.47
2023-02-28T23:11:33.547Z,17.40
2023-02-28T23:14:00.627Z,16.57
2023-02-28T23:16:29.577Z,14.80
2023-02-28T23:18:57.444Z,16.27
2023-02-28T23:21:24.005Z,14.77
2023-02-28T23:23:50.469Z,16.17
2023-02-28T23:26:16.972Z,14.40
2023-02-28T23:28:43.466Z,15.40
2023-02-28T23:31:09.988Z,16.47
2023-02-28T23:33:36.911Z,15.30
2023-02-28T23:36:09.733Z,13.73
2023-02-28T23:38:36.285Z,15.40
2023-02-28T23:41:05.732Z,17.33
2023-02-28T23:43:32.207Z,16.23
2023-02-28T23:45:58.845Z,16.27
2023-02-28T23:48:25.350Z,12.63
2023-02-28T23:50:51.823Z,17.13
2023-02-28T23:53:18.431Z,18.23
2023-02-28T23:55:47.265Z,14.57
2023-02-28T23:58:13.996Z,17.40
